Time;durP1;ratioP1;P1;durP2;ratioP2;P2;SDS_P1;SDS_P2;PMS_P1;PMS_P2;Temp;Humidity;BMP_temperature;BMP_pressure;BME280_temperature;BME280_humidity;BME280_pressure;Samples;Min_cycle;Max_cycle;Signal;HPM_P1;HPM_P2
2021/07/01 00:00:22;;;;;;;8.18;2.75;;;;;;;25.48;53.90;99468.20;1650996;83;21162;-86
2021/07/01 00:02:50;;;;;;;4.45;2.60;;;;;;;25.35;54.06;99470.36;1641539;83;21352;-86
2021/07/01 00:05:16;;;;;;;3.70;2.60;;;;;;;25.33;54.24;99472.54;1640535;85;21735;-87
2021/07/01 00:07:43;;;;;;;5.97;2.75;;;;;;;25.36;54.41;99465.24;1637300;86;21058;-87
2021/07/01 00:10:15;;;;;;;4.50;2.72;;;;;;;25.29;54.56;99465.24;1641822;85;21066;-86
2021/07/01 00:12:41;;;;;;;4.72;2.80;;;;;;;25.28;54.87;99464.41;1627169;86;21206;-87
2021/07/01 00:15:09;;;;;;;4.67;2.87;;;;;;;25.29;55.10;99467.39;1645600;85;21075;-87
2021/07/01 00:17:35;;;;;;;3.83;2.72;;;;;;;25.27;55.36;99462.78;1654410;84;21090;-87
2021/07/01 00:20:03;;;;;;;3.80;2.70;;;;;;;25.36;55.18;99461.19;1691319;83;21575;-87
2021/07/01 00:22:29;;;;;;;4.30;2.72;;;;;;;25.38;55.00;99450.91;1692651;84;21188;-86
2021/07/01 00:24:55;;;;;;;5.37;3.05;;;;;;;25.35;55.19;99454.70;1685769;83;22023;-85
2021/07/01 00:27:20;;;;;;;5.28;2.95;;;;;;;25.21;55.85;99461.16;1652143;85;21469;-87
2021/07/01 00:29:46;;;;;;;5.92;3.10;;;;;;;25.21;55.85;99461.16;1646836;85;20964;-86
2021/07/01 00:32:12;;;;;;;4.72;2.50;;;;;;;25.16;55.84;99455.77;1644192;84;20921;-86
2021/07/01 00:34:38;;;;;;;3.75;3.00;;;;;;;25.00;56.33;99454.92;1633210;84;20915;-85
2021/07/01 00:37:04;;;;;;;3.25;2.85;;;;;;;24.83;56.96;99457.90;1662098;84;21534;-84
2021/07/01 00:39:30;;;;;;;5.23;3.20;;;;;;;24.71;57.42;99464.33;1643497;85;21678;-85
2021/07/01 00:41:55;;;;;;;5.97;3.05;;;;;;;24.52;58.02;99462.64;1648676;84;21245;-86
2021/07/01 00:44:21;;;;;;;5.70;3.05;;;;;;;24.49;58.20;99463.72;1632527;84;21978;-85
2021/07/01 00:46:47;;;;;;;5.35;3.15;;;;;;;24.36;58.60;99446.95;1633517;86;21160;-87
2021/07/01 00:49:13;;;;;;;4.10;3.15;;;;;;;24.43;58.44;99441.84;1640827;86;21162;-85
2021/07/01 00:51:39;;;;;;;4.72;3.05;;;;;;;24.37;58.70;99443.16;1645506;86;20928;-84
2021/07/01 00:54:05;;;;;;;4.95;3.52;;;;;;;24.19;59.40;99446.32;1649072;84;21150;-85
2021/07/01 00:56:37;;;;;;;5.83;3.27;;;;;;;24.19;59.33;99442.27;1652916;85;20936;-85
2021/07/01 00:58:58;;;;;;;7.65;3.52;;;;;;;24.03;60.28;99443.30;1654090;86;21812;-85
2021/07/01 01:01:24;;;;;;;5.12;3.58;;;;;;;23.99;60.29;99442.47;1653167;85;21954;-85
2021/07/01 01:03:50;;;;;;;5.60;3.62;;;;;;;24.03;60.26;99437.36;1657229;86;20918;-85
2021/07/01 01:06:16;;;;;;;6.00;3.62;;;;;;;23.79;61.07;99435.05;1654836;86;21062;-85
2021/07/01 01:08:41;;;;;;;4.95;3.40;;;;;;;23.93;60.60;99435.43;1653306;85;21110;-85
2021/07/01 01:11:07;;;;;;;5.55;3.77;;;;;;;23.94;60.54;99435.72;1658701;83;21012;-86
2021/07/01 01:13:33;;;;;;;4.75;3.35;;;;;;;24.00;60.40;99432.48;1649437;83;21989;-86
2021/07/01 01:16:01;;;;;;;8.63;3.85;;;;;;;24.08;60.13;99429.28;1671633;83;20918;-85
2021/07/01 01:18:27;;;;;;;4.08;3.60;;;;;;;24.11;59.94;99425.25;1656431;83;21135;-86
2021/07/01 01:20:55;;;;;;;5.10;3.60;;;;;;;24.07;60.04;99424.18;1668812;83;21294;-87
2021/07/01 01:23:21;;;;;;;5.60;3.52;;;;;;;24.07;59.99;99430.37;1655078;83;21139;-87
2021/07/01 01:25:49;;;;;;;6.72;3.67;;;;;;;24.10;59.99;99423.63;1644056;83;22148;-87
2021/07/01 01:28:16;;;;;;;5.72;3.87;;;;;;;24.00;60.30;99425.23;1626726;83;21103;-88
2021/07/01 01:30:42;;;;;;;3.87;3.40;;;;;;;23.99;60.04;99422.25;1630850;85;25901;-88
2021/07/01 01:33:09;;;;;;;6.28;4.20;;;;;;;23.63;61.56;99426.08;1638579;85;21174;-88
2021/07/01 01:35:35;;;;;;;6.03;4.03;;;;;;;23.63;61.56;99426.08;1645800;85;21179;-87
2021/07/01 01:38:01;;;;;;;7.45;3.52;;;;;;;23.63;61.48;99423.38;1630857;86;21126;-88
2021/07/01 01:40:27;;;;;;;6.08;4.00;;;;;;;23.69;61.14;99423.41;1648599;86;21086;-86
2021/07/01 01:42:53;;;;;;;5.00;4.15;;;;;;;23.76;60.90;99425.34;1641079;85;21870;-87
2021/07/01 01:45:19;;;;;;;7.95;3.67;;;;;;;23.69;61.01;99413.97;1645012;86;21058;-88
2021/07/01 01:47:48;;;;;;;5.12;3.83;;;;;;;23.69;61.01;99413.97;1646547;85;20928;-86
2021/07/01 01:50:19;;;;;;;5.58;3.72;;;;;;;23.77;60.85;99430.98;1640813;86;21342;-87
2021/07/01 01:52:46;;;;;;;6.00;4.00;;;;;;;23.73;61.03;99429.91;1644280;86;21780;-87
2021/07/01 01:55:13;;;;;;;4.92;3.95;;;;;;;23.68;61.28;99425.81;1650994;86;21067;-87
2021/07/01 01:57:43;;;;;;;5.22;3.90;;;;;;;23.69;61.14;99423.41;1631892;85;21872;-86
2021/07/01 02:00:12;;;;;;;5.85;4.20;;;;;;;23.64;61.37;99433.08;1643957;84;21159;-87
2021/07/01 02:02:38;;;;;;;9.78;4.28;;;;;;;23.61;61.33;99426.85;1623808;84;21362;-87
2021/07/01 02:05:06;;;;;;;5.03;4.33;;;;;;;23.40;62.14;99421.88;1667451;84;21649;-87
2021/07/01 02:07:32;;;;;;;8.33;4.40;;;;;;;23.40;62.23;99419.19;1651044;83;21815;-87
2021/07/01 02:10:00;;;;;;;6.15;4.30;;;;;;;23.38;62.52;99421.85;1648347;83;21075;-88
2021/07/01 02:12:26;;;;;;;5.55;4.28;;;;;;;23.42;62.40;99422.42;1649963;83;21071;-87
2021/07/01 02:14:53;;;;;;;7.30;4.55;;;;;;;23.35;62.60;99431.80;1644484;83;21101;-88
2021/07/01 02:17:19;;;;;;;6.87;4.22;;;;;;;23.34;62.73;99435.55;1667923;83;21061;-88
2021/07/01 02:19:47;;;;;;;8.85;4.37;;;;;;;23.39;62.75;99430.22;1634118;84;21008;-88
2021/07/01 02:22:13;;;;;;;6.22;4.20;;;;;;;23.48;62.44;99436.76;1624350;84;21183;-88
2021/07/01 02:24:39;;;;;;;6.12;4.15;;;;;;;23.49;62.41;99445.09;1630237;84;21013;-87
2021/07/01 02:27:05;;;;;;;8.03;4.83;;;;;;;23.35;62.93;99450.66;1629421;84;21162;-87
2021/07/01 02:29:30;;;;;;;7.42;4.92;;;;;;;23.28;63.18;99447.65;1648342;85;20989;-88
2021/07/01 02:31:56;;;;;;;8.40;5.00;;;;;;;23.08;63.92;99446.11;1647261;84;20957;-88
2021/07/01 02:34:22;;;;;;;8.30;5.10;;;;;;;23.11;63.87;99446.43;1662314;84;20945;-88
2021/07/01 02:36:49;;;;;;;8.45;5.87;;;;;;;23.14;63.99;99442.42;1655093;86;21397;-87
2021/07/01 02:39:15;;;;;;;9.50;5.22;;;;;;;23.08;64.30;99440.20;1618547;84;21151;-87
2021/07/01 02:41:41;;;;;;;13.55;5.67;;;;;;;23.13;64.33;99446.17;1636282;84;21799;-87
2021/07/01 02:44:07;;;;;;;7.22;5.47;;;;;;;23.18;64.20;99446.23;1623811;84;21048;-86
2021/07/01 02:46:33;;;;;;;11.83;5.97;;;;;;;23.22;64.26;99449.22;1625465;84;20914;-87
2021/07/01 02:48:58;;;;;;;10.43;6.80;;;;;;;23.13;64.97;99450.22;1630173;84;20933;-88
2021/07/01 02:51:24;;;;;;;11.15;6.60;;;;;;;23.26;64.74;99452.49;1639379;84;21189;-87
2021/07/01 02:53:50;;;;;;;9.75;6.53;;;;;;;23.23;65.17;99451.66;1625843;84;20981;-87
2021/07/01 02:56:16;;;;;;;9.23;6.22;;;;;;;23.17;65.38;99449.98;1659989;84;20925;-87
2021/07/01 02:58:42;;;;;;;8.88;6.42;;;;;;;23.24;65.00;99458.68;1618655;84;21083;-87
2021/07/01 03:01:07;;;;;;;8.65;6.37;;;;;;;23.34;64.75;99453.90;1628580;85;21061;-87
2021/07/01 03:03:33;;;;;;;9.00;6.50;;;;;;;23.42;64.50;99462.05;1654939;84;21172;-87
2021/07/01 03:05:59;;;;;;;10.80;6.58;;;;;;;23.40;64.59;99454.73;1641503;85;20908;-86
2021/07/01 03:08:25;;;;;;;12.98;6.72;;;;;;;23.36;64.73;99454.98;1635768;85;20985;-86
2021/07/01 03:10:50;;;;;;;11.22;6.97;;;;;;;23.28;65.03;99462.47;1635447;84;20917;-88
2021/07/01 03:13:16;;;;;;;9.00;6.40;;;;;;;23.27;65.14;99463.55;1619034;84;21273;-87
2021/07/01 03:15:42;;;;;;;9.55;6.37;;;;;;;23.36;64.93;99459.03;1646658;86;21152;-86
2021/07/01 03:18:08;;;;;;;7.62;6.30;;;;;;;23.30;65.03;99463.04;1633029;84;21388;-87
2021/07/01 03:20:34;;;;;;;8.43;6.62;;;;;;;23.38;64.86;99460.92;1653308;84;21638;-87
2021/07/01 03:23:02;;;;;;;10.55;6.78;;;;;;;23.35;64.92;99462.78;1634571;84;21296;-89
2021/07/01 03:25:27;;;;;;;7.50;6.50;;;;;;;23.39;64.75;99464.70;1645347;84;21804;-87
2021/07/01 03:27:53;;;;;;;10.65;6.55;;;;;;;23.46;64.67;99464.48;1654664;84;21107;-87
2021/07/01 03:30:19;;;;;;;7.47;6.12;;;;;;;23.63;63.99;99465.16;1646918;86;21136;-87
2021/07/01 03:32:45;;;;;;;10.03;6.90;;;;;;;23.74;63.56;99461.16;1632459;84;21154;-87
2021/07/01 03:35:11;;;;;;;7.87;6.33;;;;;;;23.75;63.55;99472.23;1641253;84;21468;-86
2021/07/01 03:37:37;;;;;;;9.23;5.85;;;;;;;23.86;63.19;99472.59;1643442;84;22302;-87
2021/07/01 03:40:08;;;;;;;9.40;6.42;;;;;;;23.92;62.95;99458.07;1630947;86;21100;-86
2021/07/01 03:42:32;;;;;;;9.15;6.40;;;;;;;23.84;63.10;99458.58;1641353;86;21018;-87
2021/07/01 03:44:58;;;;;;;8.45;6.70;;;;;;;23.71;63.51;99453.59;1647406;85;20948;-87
2021/07/01 03:47:24;;;;;;;13.32;6.75;;;;;;;23.73;63.55;99452.82;1652957;85;20912;-87
2021/07/01 03:49:50;;;;;;;13.05;6.70;;;;;;;23.65;63.50;99456.81;1650781;85;21258;-87
2021/07/01 03:52:15;;;;;;;9.28;6.08;;;;;;;23.79;63.29;99459.87;1645676;86;21047;-86
2021/07/01 03:54:41;;;;;;;8.83;6.40;;;;;;;23.79;63.22;99459.87;1650489;85;20936;-86
2021/07/01 03:57:07;;;;;;;11.93;6.60;;;;;;;23.88;62.86;99456.16;1635711;86;20955;-86
2021/07/01 03:59:33;;;;;;;10.80;6.33;;;;;;;23.93;62.50;99451.61;1645806;86;20904;-87
2021/07/01 04:01:58;;;;;;;10.40;6.00;;;;;;;23.83;62.83;99459.09;1646542;83;20953;-88
2021/07/01 04:04:24;;;;;;;8.08;6.12;;;;;;;23.88;62.55;99454.29;1656492;83;21033;-87
2021/07/01 04:06:50;;;;;;;8.40;6.40;;;;;;;23.98;62.27;99451.63;1653606;83;20928;-85
2021/07/01 04:09:16;;;;;;;7.95;5.92;;;;;;;23.82;62.78;99452.61;1666726;83;20956;-86
2021/07/01 04:11:41;;;;;;;9.38;5.97;;;;;;;23.81;62.74;99450.97;1678397;83;20929;-89
2021/07/01 04:14:07;;;;;;;8.93;7.33;;;;;;;23.88;62.59;99446.20;1653562;85;20936;-89
2021/07/01 04:16:33;;;;;;;8.88;6.08;;;;;;;23.73;63.00;99450.13;1650492;85;21184;-88
2021/07/01 04:18:59;;;;;;;11.53;7.28;;;;;;;23.84;62.73;99453.98;1640537;85;20968;-89
2021/07/01 04:21:27;;;;;;;10.27;6.87;;;;;;;23.60;63.05;99468.89;1634636;85;20975;-89
2021/07/01 04:23:57;;;;;;;10.50;6.95;;;;;;;23.50;63.62;99468.84;1631544;85;21023;-89
2021/07/01 04:26:23;;;;;;;9.88;6.83;;;;;;;23.43;63.82;99463.64;1647869;86;21098;-87
2021/07/01 04:28:50;;;;;;;11.55;6.87;;;;;;;23.67;63.78;99470.84;1667880;84;21077;-89
2021/07/01 04:31:16;;;;;;;9.70;7.50;;;;;;;23.58;64.13;99477.23;1691441;83;21061;-88
2021/07/01 04:33:42;;;;;;;11.00;7.05;;;;;;;23.56;64.21;99467.80;1653954;83;21082;-81
2021/07/01 04:36:08;;;;;;;11.12;7.53;;;;;;;23.69;63.69;99464.64;1640901;86;21062;-83
2021/07/01 04:38:34;;;;;;;11.40;7.60;;;;;;;23.55;63.47;99472.36;1632397;85;21083;-83
2021/07/01 04:41:00;;;;;;;12.93;7.20;;;;;;;23.42;64.21;99467.43;1650493;85;21109;-83
2021/07/01 04:43:25;;;;;;;10.60;7.58;;;;;;;23.54;63.40;99461.33;1644566;85;20911;-82
2021/07/01 04:45:51;;;;;;;11.08;7.08;;;;;;;23.40;64.06;99456.08;1647711;85;20947;-82
2021/07/01 04:48:17;;;;;;;9.55;6.75;;;;;;;23.57;63.06;99458.11;1640671;86;20904;-82
2021/07/01 04:50:42;;;;;;;11.03;6.80;;;;;;;23.38;63.69;99463.62;1637395;85;21023;-83
2021/07/01 04:53:08;;;;;;;11.00;6.12;;;;;;;23.43;63.18;99466.34;1652374;85;21142;-82
2021/07/01 04:55:34;;;;;;;8.40;6.22;;;;;;;23.58;62.52;99462.41;1651634;85;20939;-84
2021/07/01 04:58:00;;;;;;;9.28;6.80;;;;;;;23.46;62.73;99464.48;1655251;86;20916;-85
2021/07/01 05:00:25;;;;;;;9.68;5.97;;;;;;;23.23;63.74;99467.02;1659271;85;20943;-85
2021/07/01 05:02:51;;;;;;;8.50;5.85;;;;;;;23.44;62.88;99479.56;1656820;85;20873;-84
2021/07/01 05:05:17;;;;;;;9.88;6.45;;;;;;;23.34;63.46;99478.66;1648766;84;21253;-83
2021/07/01 05:07:46;;;;;;;10.38;5.53;;;;;;;23.28;62.84;99467.85;1645253;84;21516;-85
2021/07/01 05:10:17;;;;;;;11.97;6.50;;;;;;;23.27;62.59;99482.41;1649623;84;21198;-82
2021/07/01 05:12:43;;;;;;;8.38;5.50;;;;;;;23.30;62.85;99476.52;1689075;84;21771;-80
2021/07/01 05:15:10;;;;;;;6.60;4.92;;;;;;;23.37;62.41;99483.53;1688929;83;21021;-80
2021/07/01 05:17:36;;;;;;;7.60;4.80;;;;;;;23.42;61.73;99478.21;1663665;84;21034;-80
2021/07/01 05:20:05;;;;;;;7.07;4.70;;;;;;;23.40;62.06;99483.02;1650631;85;21062;-83
2021/07/01 05:22:31;;;;;;;5.95;4.47;;;;;;;23.48;61.88;99481.22;1645918;85;21543;-81
2021/07/01 05:24:56;;;;;;;7.83;4.87;;;;;;;23.47;61.75;99487.12;1622989;84;21156;-81
2021/07/01 05:27:22;;;;;;;6.97;4.55;;;;;;;23.42;61.94;99497.07;1627270;84;21116;-84
2021/07/01 05:29:48;;;;;;;6.92;4.03;;;;;;;23.52;61.48;99496.33;1632888;84;21105;-85
2021/07/01 05:32:14;;;;;;;7.53;4.80;;;;;;;23.66;61.49;99501.03;1639205;84;21091;-84
2021/07/01 05:34:40;;;;;;;5.97;4.10;;;;;;;23.79;61.03;99493.57;1620885;84;21125;-84
2021/07/01 05:37:06;;;;;;;8.33;4.33;;;;;;;24.00;60.48;99494.00;1645195;84;21327;-84
2021/07/01 05:39:31;;;;;;;7.30;4.10;;;;;;;23.92;60.34;99494.47;1631120;84;21158;-82
2021/07/01 05:41:57;;;;;;;6.30;3.52;;;;;;;24.10;59.79;99493.76;1622455;84;21169;-84
2021/07/01 05:44:23;;;;;;;5.65;3.40;;;;;;;24.06;59.45;99499.42;1642069;85;20952;-83
2021/07/01 05:46:49;;;;;;;5.65;3.50;;;;;;;24.29;58.92;99501.69;1627874;84;20965;-83
2021/07/01 05:49:14;;;;;;;5.55;3.22;;;;;;;24.14;58.80;99508.36;1627197;84;20960;-84
2021/07/01 05:51:41;;;;;;;5.22;2.87;;;;;;;24.15;58.65;99505.39;1643068;84;21020;-84
2021/07/01 05:56:38;;;;;;;6.15;3.77;;;;;;;23.92;59.22;99501.77;1627348;84;21057;-82
2021/07/01 05:59:07;;;;;;;5.70;3.90;;;;;;;24.08;59.74;99497.26;1637778;84;21359;-82
2021/07/01 06:01:34;;;;;;;9.58;4.20;;;;;;;24.21;59.87;99507.59;1638322;84;21056;-83
2021/07/01 06:04:07;;;;;;;6.28;4.03;;;;;;;24.11;60.11;99501.59;1634952;84;21634;-82
2021/07/01 06:06:33;;;;;;;6.95;4.42;;;;;;;24.04;60.70;99497.53;1617999;86;21213;-83
2021/07/01 06:08:59;;;;;;;7.78;4.50;;;;;;;24.12;60.63;99502.42;1634377;86;21394;-83
2021/07/01 06:11:25;;;;;;;6.45;4.20;;;;;;;24.07;60.82;99497.00;1628130;86;21473;-82
2021/07/01 06:13:51;;;;;;;5.97;4.37;;;;;;;24.27;60.36;99501.14;1632945;86;20962;-82
2021/07/01 06:16:17;;;;;;;5.78;4.25;;;;;;;24.25;60.26;99500.58;1625989;86;20935;-83
2021/07/01 06:18:43;;;;;;;8.00;4.30;;;;;;;24.25;60.48;99510.56;1638323;86;21207;-82
2021/07/01 06:21:09;;;;;;;6.83;4.30;;;;;;;24.24;60.82;99511.12;1645096;86;22224;-82
2021/07/01 06:23:39;;;;;;;6.97;4.13;;;;;;;24.35;60.57;99510.08;1639013;86;21343;-82
2021/07/01 06:26:06;;;;;;;5.47;3.80;;;;;;;24.35;60.24;99499.28;1637489;86;20995;-83
2021/07/01 06:28:38;;;;;;;7.17;3.63;;;;;;;24.43;59.77;99517.41;1683777;83;21078;-83
2021/07/01 06:31:01;;;;;;;7.10;3.92;;;;;;;24.53;59.63;99520.96;1690226;83;21054;-82
2021/07/01 06:33:26;;;;;;;5.25;3.75;;;;;;;24.63;59.63;99523.45;1686054;84;20876;-82
2021/07/01 06:35:55;;;;;;;5.12;3.85;;;;;;;24.65;58.24;99523.99;1689095;83;20934;-83
2021/07/01 06:38:23;;;;;;;5.45;3.80;;;;;;;24.61;59.05;99529.13;1690892;83;21580;-83
2021/07/01 06:40:49;;;;;;;5.83;4.03;;;;;;;24.48;58.81;99539.02;1688324;84;21153;-82
2021/07/01 06:43:15;;;;;;;5.42;3.60;;;;;;;24.58;59.08;99539.09;1684480;83;21082;-82
2021/07/01 06:45:41;;;;;;;6.80;3.80;;;;;;;24.75;59.04;99539.41;1637741;85;20911;-82
2021/07/01 06:48:07;;;;;;;7.50;3.90;;;;;;;25.00;58.28;99539.49;1630089;86;21175;-82
2021/07/01 06:50:33;;;;;;;6.72;3.60;;;;;;;25.02;57.41;99537.88;1650735;85;21207;-82
2021/07/01 06:52:59;;;;;;;5.30;3.08;;;;;;;24.79;57.38;99541.31;1650177;85;21089;-84
2021/07/01 06:55:25;;;;;;;5.33;3.15;;;;;;;24.38;57.96;99539.23;1651281;85;21012;-83
2021/07/01 06:57:50;;;;;;;5.72;2.95;;;;;;;24.58;57.67;99533.70;1674059;85;21028;-84
2021/07/01 07:00:18;;;;;;;4.58;2.95;;;;;;;24.67;56.88;99542.08;1661949;83;20956;-83
2021/07/01 07:02:44;;;;;;;5.95;3.37;;;;;;;24.27;57.72;99533.53;1676631;84;21314;-84
2021/07/01 07:05:15;;;;;;;7.10;2.72;;;;;;;24.24;58.09;99531.35;1660781;84;20908;-83
2021/07/01 07:07:43;;;;;;;7.83;3.10;;;;;;;24.38;57.72;99521.70;1663791;83;21017;-83
2021/07/01 07:10:12;;;;;;;5.37;2.72;;;;;;;24.59;57.05;99523.16;1669469;83;21224;-82
2021/07/01 07:12:42;;;;;;;8.18;3.17;;;;;;;24.62;57.06;99516.42;1655787;85;21380;-82
2021/07/01 07:15:11;;;;;;;4.53;2.90;;;;;;;24.71;57.14;99512.14;1653630;84;21086;-82
2021/07/01 07:17:37;;;;;;;6.05;3.00;;;;;;;24.64;57.03;99516.96;1656342;86;21070;-83
2021/07/01 07:20:04;;;;;;;8.60;3.20;;;;;;;24.61;57.53;99521.02;1659167;84;21066;-82
2021/07/01 07:22:32;;;;;;;7.80;3.20;;;;;;;24.66;57.38;99527.78;1659938;85;21313;-82
2021/07/01 07:25:01;;;;;;;5.25;3.02;;;;;;;24.65;57.29;99518.05;1632210;85;21103;-82
2021/07/01 07:27:29;;;;;;;7.60;2.70;;;;;;;24.73;57.44;99522.95;1629925;86;21247;-82
2021/07/01 07:29:55;;;;;;;6.28;3.02;;;;;;;24.87;57.11;99526.48;1639494;86;21276;-82
2021/07/01 07:32:26;;;;;;;5.42;2.90;;;;;;;24.90;57.38;99525.95;1644961;86;21837;-84
2021/07/01 07:34:51;;;;;;;9.40;2.95;;;;;;;24.94;57.25;99535.16;1640345;86;21090;-83
2021/07/01 07:37:17;;;;;;;9.23;3.37;;;;;;;24.69;57.92;99529.95;1639822;85;20900;-82
2021/07/01 07:39:44;;;;;;;7.10;3.02;;;;;;;24.84;57.40;99532.41;1647650;86;20919;-82
2021/07/01 07:42:11;;;;;;;5.30;3.10;;;;;;;24.80;57.28;99536.75;1647994;85;21605;-83
2021/07/01 07:44:39;;;;;;;5.35;3.02;;;;;;;24.92;57.27;99534.59;1649032;83;21979;-84
2021/07/01 07:47:05;;;;;;;4.80;2.72;;;;;;;24.72;58.19;99538.07;1643612;83;21056;-83
2021/07/01 07:49:30;;;;;;;9.75;2.92;;;;;;;24.86;57.55;99531.60;1638326;85;21043;-83
2021/07/01 07:51:58;;;;;;;5.67;2.85;;;;;;;24.50;57.47;99532.80;1641830;85;20987;-82
2021/07/01 07:54:25;;;;;;;5.20;2.72;;;;;;;24.40;57.83;99536.83;1644547;85;21028;-84
2021/07/01 07:56:52;;;;;;;6.53;2.58;;;;;;;24.42;58.02;99529.27;1648625;86;22019;-83
2021/07/01 07:59:23;;;;;;;7.25;2.90;;;;;;;24.41;58.16;99530.34;1639008;85;21261;-82
2021/07/01 08:01:49;;;;;;;4.80;2.87;;;;;;;24.30;58.16;99528.13;1645348;85;21363;-83
2021/07/01 08:04:16;;;;;;;4.08;2.65;;;;;;;24.25;58.57;99518.11;1643563;85;21092;-82
2021/07/01 08:06:43;;;;;;;4.25;2.90;;;;;;;24.31;58.87;99527.86;1655554;86;21248;-84
2021/07/01 08:09:09;;;;;;;4.33;2.83;;;;;;;24.40;58.85;99536.83;1617873;86;21146;-84
2021/07/01 08:11:35;;;;;;;7.37;3.30;;;;;;;24.47;58.23;99536.03;1673964;85;21142;-83
2021/07/01 08:14:01;;;;;;;5.60;3.10;;;;;;;24.63;57.90;99531.01;1642827;84;21077;-84
2021/07/01 08:16:27;;;;;;;5.08;3.22;;;;;;;24.67;57.80;99529.41;1617830;84;21092;-83
2021/07/01 08:18:53;;;;;;;4.75;2.90;;;;;;;24.80;57.45;99534.84;1630225;84;21134;-83
2021/07/01 08:21:18;;;;;;;6.12;3.00;;;;;;;24.88;57.31;99533.52;1656698;86;21330;-82
2021/07/01 08:23:45;;;;;;;4.30;2.20;;;;;;;24.98;57.39;99525.97;1617912;84;21320;-83
2021/07/01 08:26:11;;;;;;;4.10;2.42;;;;;;;24.61;55.25;99541.27;1670245;84;21067;-82
2021/07/01 08:28:37;;;;;;;3.17;2.05;;;;;;;24.67;54.03;99544.27;1662735;84;21082;-82
2021/07/01 08:31:11;;;;;;;4.03;2.20;;;;;;;24.77;53.63;99537.28;1689816;83;20960;-83
2021/07/01 08:33:40;;;;;;;2.62;2.12;;;;;;;24.79;53.67;99541.86;1685682;83;21426;-82
2021/07/01 08:36:08;;;;;;;5.17;2.27;;;;;;;24.44;53.50;99541.95;1658795;84;21156;-83
2021/07/01 08:38:37;;;;;;;2.55;2.20;;;;;;;24.83;52.67;99535.66;1690182;83;21105;-83
2021/07/01 08:41:16;;;;;;;5.53;2.37;;;;;;;24.86;53.05;99536.48;1688808;83;21084;-83
2021/07/01 08:44:02;;;;;;;3.85;2.17;;;;;;;24.75;53.31;99536.70;1692932;84;21604;-82
2021/07/01 08:46:29;;;;;;;;;;;;;;;25.08;53.01;99532.75;1684746;83;21167;-83
2021/07/01 08:49:08;;;;;;;;;;;;;;;25.42;51.88;99526.88;1659891;86;20226;-83
2021/07/01 08:51:38;;;;;;;6.97;2.10;;;;;;;25.75;51.45;99522.80;1636249;87;20159;-84
2021/07/01 08:54:26;;;;;;;3.95;2.08;;;;;;;25.80;50.42;99524.68;1622431;87;21955;-83
2021/07/01 08:56:54;;;;;;;4.33;2.37;;;;;;;25.79;51.18;99518.47;1628236;88;21610;-86
2021/07/01 08:59:21;;;;;;;5.33;2.17;;;;;;;25.79;51.05;99529.29;1622873;87;21132;-84
2021/07/01 09:01:49;;;;;;;;;;;;;;;25.94;49.98;99520.87;1624102;87;21176;-86
2021/07/01 09:04:15;;;;;;;5.10;2.02;;;;;;;26.01;49.88;99521.44;1615474;86;20154;-83
2021/07/01 09:06:42;;;;;;;3.62;1.90;;;;;;;25.96;50.31;99520.05;1604912;86;20932;-84
2021/07/01 09:09:10;;;;;;;2.98;1.98;;;;;;;26.06;50.04;99520.06;1612227;87;21105;-84
2021/07/01 09:11:38;;;;;;;5.25;1.98;;;;;;;26.07;49.45;99516.28;1619662;86;21155;-84
2021/07/01 09:14:07;;;;;;;5.78;2.00;;;;;;;26.15;48.83;99511.66;1609053;88;21125;-83
2021/07/01 09:16:33;;;;;;;4.70;1.90;;;;;;;26.25;49.07;99504.59;1615917;88;21091;-86
2021/07/01 09:18:59;;;;;;;4.07;1.87;;;;;;;26.17;48.83;99515.44;1626039;87;26840;-83
2021/07/01 09:21:25;;;;;;;5.13;2.00;;;;;;;26.44;47.89;99510.99;1621559;87;21135;-84
2021/07/01 09:23:50;;;;;;;3.70;1.90;;;;;;;26.58;47.33;99513.91;1648584;84;21130;-85
2021/07/01 09:26:20;;;;;;;3.05;1.60;;;;;;;26.78;47.23;99516.30;1655956;84;21486;-83
2021/07/01 09:28:48;;;;;;;3.85;1.65;;;;;;;26.55;45.65;99523.14;1654828;84;21034;-84
2021/07/01 09:31:18;;;;;;;5.42;1.70;;;;;;;26.36;45.52;99522.41;1632261;84;21141;-82
2021/07/01 09:33:46;;;;;;;4.78;1.40;;;;;;;26.14;44.99;99516.79;1631750;85;21077;-84
2021/07/01 09:36:13;;;;;;;2.10;1.65;;;;;;;26.38;44.38;99520.22;1650567;86;20993;-82
2021/07/01 09:38:42;;;;;;;3.75;1.75;;;;;;;26.63;44.87;99522.55;1651120;85;21066;-85
2021/07/01 09:41:07;;;;;;;6.30;1.92;;;;;;;26.73;45.03;99510.36;1652058;85;21046;-83
2021/07/01 09:43:33;;;;;;;2.80;1.60;;;;;;;26.66;45.26;99515.26;1639511;85;20896;-83
2021/07/01 09:46:03;;;;;;;2.62;1.62;;;;;;;26.79;45.29;99519.28;1616489;88;21023;-85
2021/07/01 09:48:32;;;;;;;4.75;1.92;;;;;;;26.89;45.08;99514.33;1611103;88;21402;-83
2021/07/01 09:50:57;;;;;;;5.05;1.70;;;;;;;26.58;45.30;99508.49;1607716;87;20999;-82
2021/07/01 09:53:29;;;;;;;2.42;1.70;;;;;;;26.68;45.09;99509.04;1611594;87;20959;-83
2021/07/01 09:55:55;;;;;;;4.85;1.70;;;;;;;26.81;44.81;99498.92;1620870;85;21118;-83
2021/07/01 09:58:24;;;;;;;6.83;1.60;;;;;;;26.90;44.03;99501.06;1625431;86;46585;-85
2021/07/01 10:00:52;;;;;;;3.83;1.80;;;;;;;26.82;44.05;99491.07;1603048;87;21267;-85
2021/07/01 10:03:18;;;;;;;3.72;1.67;;;;;;;26.68;45.04;99499.56;1625594;86;21102;-85
2021/07/01 10:05:44;;;;;;;3.33;1.70;;;;;;;27.18;44.31;99496.23;1609333;86;21012;-84
2021/07/01 10:08:10;;;;;;;2.67;1.70;;;;;;;27.07;44.21;99496.06;1642442;84;21074;-84
2021/07/01 10:10:45;;;;;;;4.33;1.40;;;;;;;27.10;43.08;99496.02;1637888;84;21216;-85
2021/07/01 10:13:12;;;;;;;2.87;1.60;;;;;;;27.23;42.95;99493.48;1628041;84;21113;-81
2021/07/01 10:15:38;;;;;;;3.03;1.80;;;;;;;27.19;41.75;99501.94;1622863;86;21082;-86
2021/07/01 10:18:14;;;;;;;5.20;1.53;;;;;;;26.95;43.09;99490.18;1628567;86;21071;-84
2021/07/01 10:20:42;;;;;;;4.17;1.67;;;;;;;27.27;43.04;99484.78;1607355;87;21479;-82
2021/07/01 10:23:27;;;;;;;3.47;1.80;;;;;;;27.53;42.50;99488.95;1602545;88;21153;-83
2021/07/01 10:25:58;;;;;;;3.62;1.70;;;;;;;27.56;42.53;99488.38;1604731;88;21127;-83
2021/07/01 10:28:25;;;;;;;3.15;1.50;;;;;;;27.60;42.43;99487.80;1623361;85;21220;-81
2021/07/01 10:31:05;;;;;;;2.47;1.60;;;;;;;27.58;42.14;99492.95;1619611;85;21039;-82
2021/07/01 10:33:37;;;;;;;2.83;1.60;;;;;;;27.71;42.20;99492.83;1623262;85;21057;-83
2021/07/01 10:36:05;;;;;;;2.37;1.52;;;;;;;27.64;41.13;99496.97;1637388;85;21079;-83
2021/07/01 10:38:45;;;;;;;2.30;1.60;;;;;;;27.94;41.19;99488.52;1631378;85;21126;-82
2021/07/01 10:41:12;;;;;;;2.72;1.60;;;;;;;27.91;41.57;99490.45;1620239;85;21066;-84
2021/07/01 10:43:43;;;;;;;4.75;1.55;;;;;;;27.83;41.48;99488.94;1620972;84;21114;-81
2021/07/01 10:46:09;;;;;;;3.27;1.60;;;;;;;28.02;41.10;99491.75;1613055;87;21278;-83
2021/07/01 10:48:35;;;;;;;4.12;1.80;;;;;;;27.75;42.18;99495.80;1635939;84;20908;-83
2021/07/01 10:51:13;;;;;;;2.85;1.80;;;;;;;28.03;42.16;99495.53;1637360;84;21276;-82
2021/07/01 10:53:43;;;;;;;4.37;1.80;;;;;;;28.37;41.60;99486.97;1638804;85;21173;-84
2021/07/01 10:56:40;;;;;;;2.55;1.80;;;;;;;28.17;41.43;99492.93;1652507;85;21688;-84
2021/07/01 10:59:06;;;;;;;2.77;1.32;;;;;;;28.17;41.71;99486.14;1649738;84;21771;-82
2021/07/01 11:01:32;;;;;;;2.30;1.40;;;;;;;28.40;40.53;99482.32;1641082;86;21022;-84
2021/07/01 11:04:12;;;;;;;3.90;1.60;;;;;;;28.50;40.65;99483.55;1629510;87;21640;-83
2021/07/01 11:06:40;;;;;;;4.35;1.70;;;;;;;28.27;41.27;99494.14;1658723;85;21128;-83
2021/07/01 11:09:07;;;;;;;3.17;1.80;;;;;;;28.13;40.85;99497.31;1614030;86;21764;-83
2021/07/01 11:11:36;;;;;;;2.95;1.70;;;;;;;28.19;40.61;99479.06;1624312;87;21127;-83
2021/07/01 11:14:10;;;;;;;5.80;1.75;;;;;;;28.37;39.97;99485.61;1619399;86;21092;-82
2021/07/01 11:16:42;;;;;;;2.98;1.60;;;;;;;28.33;40.25;99486.75;1593733;89;21096;-82
2021/07/01 11:19:14;;;;;;;2.52;1.77;;;;;;;28.49;40.79;99484.64;1620626;87;21138;-82
2021/07/01 11:21:52;;;;;;;5.90;1.92;;;;;;;28.08;41.39;99491.95;1622626;87;21119;-82
2021/07/01 11:24:23;;;;;;;4.25;1.98;;;;;;;27.82;42.10;99489.47;1623579;87;22621;-83
2021/07/01 11:26:53;;;;;;;3.20;1.80;;;;;;;28.12;41.43;99497.04;1646655;85;21282;-82
2021/07/01 11:29:45;;;;;;;5.67;1.80;;;;;;;28.08;41.32;99497.37;1625035;86;21206;-83
2021/07/01 11:32:24;;;;;;;2.45;1.80;;;;;;;28.23;41.19;99495.84;1645580;84;20987;-83
2021/07/01 11:34:52;;;;;;;2.40;1.67;;;;;;;28.13;40.96;99504.09;1659409;84;21098;-82
2021/07/01 11:37:33;;;;;;;;;;;;;;;28.19;40.37;99500.23;1661488;84;21161;-83